createdAt,value
2023-04-15T00:01:12.671Z,98375.35
2023-04-15T00:03:41.680Z,98374.85
2023-04-15T00:06:10.501Z,98372.98
2023-04-15T00:08:39.055Z,98379.35
2023-04-15T00:11:07.440Z,98389.88
2023-04-15T00:13:35.959Z,98394.13
2023-04-15T00:16:05.843Z,98397.59
2023-04-15T00:18:35.071Z,98398.38
2023-04-15T00:21:03.986Z,98398.13
2023-04-15T00:23:32.434Z,98404.06
2023-04-15T00:26:00.983Z,98410.52
2023-04-15T00:28:30.468Z,98414.57
2023-04-15T00:30:59.078Z,98415.41
2023-04-15T00:33:27.568Z,98415.02
2023-04-15T00:35:56.153Z,98420.66
2023-04-15T00:38:25.435Z,98424.18
2023-04-15T00:40:54.677Z,98417.55
2023-04-15T00:43:23.511Z,98420.47
2023-04-15T00:45:54.410Z,98420.13
2023-04-15T00:48:24.384Z,98424.19
2023-04-15T00:50:52.842Z,98426.19
2023-04-15T00:53:21.310Z,98428.03
2023-04-15T00:55:50.568Z,98429.66
2023-04-15T00:58:19.207Z,98435.41
2023-04-15T01:00:48.591Z,98442.70
2023-04-15T01:03:17.200Z,98449.48
2023-04-15T01:05:45.934Z,98448.23
2023-04-15T01:08:15.717Z,98454.05
2023-04-15T01:10:44.182Z,98457.03
2023-04-15T01:13:12.641Z,98459.16
2023-04-15T01:15:42.125Z,98464.52
2023-04-15T01:18:10.801Z,98465.46
2023-04-15T01:20:39.704Z,98464.77
2023-04-15T01:23:08.191Z,98467.05
2023-04-15T01:25:36.670Z,98469.30
2023-04-15T01:28:05.450Z,98467.50
2023-04-15T01:30:35.297Z,98473.08
2023-04-15T01:33:04.021Z,98479.72
2023-04-15T01:35:32.654Z,98479.08
2023-04-15T01:38:05.565Z,98482.23
2023-04-15T01:40:34.380Z,98484.11
2023-04-15T01:43:03.602Z,98480.98
2023-04-15T01:45:32.124Z,98486.70
2023-04-15T01:48:00.839Z,98486.89
2023-04-15T01:50:29.390Z,98490.24
2023-04-15T01:52:59.609Z,98488.11
2023-04-15T01:55:28.361Z,98484.60
2023-04-15T01:57:57.186Z,98481.52
2023-04-15T02:00:26.032Z,98490.27
2023-04-15T02:02:55.004Z,98486.14
2023-04-15T02:05:27.153Z,98479.35
2023-04-15T02:07:55.617Z,98483.39
2023-04-15T02:10:24.101Z,98485.80
2023-04-15T02:12:53.542Z,98491.91
2023-04-15T02:15:22.085Z,98493.84
2023-04-15T02:17:52.025Z,98499.44
2023-04-15T02:20:20.895Z,98494.22
2023-04-15T02:22:49.645Z,98499.43
2023-04-15T02:25:19.667Z,98506.88
2023-04-15T02:27:48.144Z,98511.39
2023-04-15T02:30:18.358Z,98510.89
2023-04-15T02:32:47.756Z,98513.29
2023-04-15T02:35:18.586Z,98517.80
2023-04-15T02:37:47.009Z,98520.02
2023-04-15T02:40:15.525Z,98521.66
2023-04-15T02:42:44.209Z,98527.02
2023-04-15T02:45:14.510Z,98530.05
2023-04-15T02:47:45.320Z,98532.98
2023-04-15T02:50:16.681Z,98534.83
2023-04-15T02:52:45.249Z,98538.02
2023-04-15T02:55:13.731Z,98545.95
2023-04-15T02:57:42.376Z,98550.45
2023-04-15T03:00:13.993Z,98552.19
2023-04-15T03:02:44.504Z,98562.14
2023-04-15T03:05:16.358Z,98565.27
2023-04-15T03:07:52.710Z,98565.88
2023-04-15T03:10:22.166Z,98562.02
2023-04-15T03:12:50.655Z,98559.77
2023-04-15T03:15:23.550Z,98558.42
2023-04-15T03:17:53.891Z,98557.38
2023-04-15T03:20:22.887Z,98563.48
2023-04-15T03:22:51.391Z,98566.40
2023-04-15T03:25:21.032Z,98572.23
2023-04-15T03:27:49.537Z,98572.78
2023-04-15T03:30:18.308Z,98577.81
2023-04-15T03:32:47.817Z,98581.77
2023-04-15T03:35:17.303Z,98583.19
2023-04-15T03:37:45.839Z,98589.08
2023-04-15T03:40:15.091Z,98594.04
2023-04-15T03:42:43.520Z,98599.73
2023-04-15T03:45:12.752Z,98601.84
2023-04-15T03:47:41.242Z,98606.08
2023-04-15T03:50:10.387Z,98610.36
2023-04-15T03:52:39.149Z,98613.59
2023-04-15T03:55:09.207Z,98620.00
2023-04-15T03:57:39.158Z,98622.77
2023-04-15T04:00:10.065Z,98625.15
2023-04-15T04:02:41.742Z,98628.29
2023-04-15T04:05:10.726Z,98624.63
2023-04-15T04:07:39.520Z,98626.18
2023-04-15T04:10:09.653Z,98623.93
2023-04-15T04:12:38.101Z,98627.45
2023-04-15T04:15:08.767Z,98627.52
2023-04-15T04:17:37.163Z,98631.81
2023-04-15T04:20:07.957Z,98632.25
2023-04-15T04:22:39.555Z,98639.85
2023-04-15T04:25:09.872Z,98639.71
2023-04-15T04:27:38.550Z,98645.48
2023-04-15T04:30:09.152Z,98648.12
2023-04-15T04:32:37.764Z,98649.35
2023-04-15T04:35:07.037Z,98653.05
2023-04-15T04:37:35.554Z,98654.11
2023-04-15T04:40:05.002Z,98656.05
2023-04-15T04:42:33.469Z,98657.22
2023-04-15T04:45:01.928Z,98654.52
2023-04-15T04:47:30.342Z,98659.69
2023-04-15T04:49:58.691Z,98660.30
2023-04-15T04:52:27.096Z,98660.37
2023-04-15T04:54:55.772Z,98663.21
2023-04-15T04:57:24.306Z,98657.73
2023-04-15T04:59:59.738Z,98655.88
2023-04-15T05:02:35.498Z,98658.67
2023-04-15T05:05:12.221Z,98662.09
2023-04-15T05:07:46.235Z,98660.64
2023-04-15T05:10:17.662Z,98666.01
2023-04-15T05:12:49.855Z,98670.61
2023-04-15T05:15:22.380Z,98674.86
2023-04-15T05:17:59.101Z,98683.91
2023-04-15T05:20:30.446Z,98688.02
2023-04-15T05:22:59.038Z,98692.77
2023-04-15T05:25:27.588Z,98701.68
2023-04-15T05:28:00.906Z,98693.04
2023-04-15T05:30:30.159Z,98691.07
2023-04-15T05:33:03.911Z,98696.91
2023-04-15T05:35:36.302Z,98698.19
2023-04-15T05:38:07.281Z,98700.39
2023-04-15T05:40:36.527Z,98692.89
2023-04-15T05:43:08.430Z,98693.38
2023-04-15T05:45:36.953Z,98698.11
2023-04-15T05:48:05.792Z,98693.86
2023-04-15T05:50:34.211Z,98689.85
2023-04-15T05:53:04.308Z,98693.09
2023-04-15T05:55:35.974Z,98696.43
2023-04-15T05:58:05.943Z,98690.68
2023-04-15T06:00:41.683Z,98682.23
2023-04-15T06:03:17.737Z,98680.73
2023-04-15T06:05:54.967Z,98680.13
2023-04-15T06:08:28.896Z,98680.00
2023-04-15T06:11:06.392Z,98688.27
2023-04-15T06:13:41.286Z,98691.59
2023-04-15T06:16:15.892Z,98693.30
2023-04-15T06:18:44.408Z,98698.55
2023-04-15T06:21:12.939Z,98700.16
2023-04-15T06:23:41.690Z,98704.63
2023-04-15T06:26:10.435Z,98704.11
2023-04-15T06:28:38.853Z,98705.38
2023-04-15T06:31:07.463Z,98707.60
2023-04-15T06:33:36.104Z,98711.06
2023-04-15T06:36:06.357Z,98715.55
2023-04-15T06:38:34.827Z,98719.09
2023-04-15T06:41:04.069Z,98718.29
2023-04-15T06:43:32.856Z,98720.14
2023-04-15T06:46:01.685Z,98726.77
2023-04-15T06:48:30.194Z,98725.60
2023-04-15T06:51:03.206Z,98723.78
2023-04-15T06:53:31.588Z,98729.47
2023-04-15T06:56:00.117Z,98731.26
2023-04-15T06:58:29.251Z,98731.22
2023-04-15T07:00:57.693Z,98731.51
2023-04-15T07:03:26.544Z,98737.30
2023-04-15T07:05:55.062Z,98741.35
2023-04-15T07:08:23.902Z,98746.48
2023-04-15T07:10:53.540Z,98746.27
2023-04-15T07:13:22.007Z,98747.16
2023-04-15T07:15:50.455Z,98745.69
2023-04-15T07:18:19.139Z,98745.79
2023-04-15T07:20:48.265Z,98747.11
2023-04-15T07:23:16.843Z,98752.47
2023-04-15T07:25:45.361Z,98747.13
2023-04-15T07:28:13.870Z,98740.77
2023-04-15T07:30:42.444Z,98740.73
2023-04-15T07:33:10.972Z,98736.25
2023-04-15T07:35:39.325Z,98739.84
2023-04-15T07:38:07.795Z,98738.54
2023-04-15T07:40:36.263Z,98743.41
2023-04-15T07:43:04.704Z,98747.02
2023-04-15T07:45:33.536Z,98742.61
2023-04-15T07:48:02.189Z,98745.80
2023-04-15T07:50:30.638Z,98747.11
2023-04-15T07:52:59.032Z,98752.33
2023-04-15T07:55:28.300Z,98751.92
2023-04-15T07:57:56.889Z,98758.89
2023-04-15T08:00:26.285Z,98766.35
2023-04-15T08:02:57.026Z,98764.96
2023-04-15T08:05:25.663Z,98769.17
2023-04-15T08:07:54.234Z,98768.92
2023-04-15T08:10:23.262Z,98766.80
2023-04-15T08:12:53.681Z,98767.25
2023-04-15T08:15:22.138Z,98767.80
2023-04-15T08:17:50.585Z,98764.07
2023-04-15T08:20:19.183Z,98761.58
2023-04-15T08:22:51.208Z,98760.33
2023-04-15T08:25:19.977Z,98759.17
2023-04-15T08:27:48.472Z,98762.88
2023-04-15T08:30:17.279Z,98762.14
2023-04-15T08:32:46.929Z,98763.65
2023-04-15T08:35:15.920Z,98756.85
2023-04-15T08:37:44.334Z,98756.56
2023-04-15T08:40:13.595Z,98759.34
2023-04-15T08:42:48.701Z,98761.48
2023-04-15T08:45:18.453Z,98758.86
2023-04-15T08:47:52.254Z,98761.10
2023-04-15T08:50:22.350Z,98756.55
2023-04-15T08:52:55.033Z,98761.81
2023-04-15T08:55:24.919Z,98763.92
2023-04-15T08:57:53.433Z,98764.75
2023-04-15T09:00:22.896Z,98768.91
2023-04-15T09:02:52.072Z,98768.57
2023-04-15T09:05:21.190Z,98770.23
2023-04-15T09:07:51.000Z,98766.60
2023-04-15T09:10:19.635Z,98769.39
2023-04-15T09:12:48.068Z,98766.61
2023-04-15T09:15:17.085Z,98769.73
2023-04-15T09:17:46.205Z,98767.20
2023-04-15T09:20:18.051Z,98776.66
2023-04-15T09:22:47.790Z,98776.79
2023-04-15T09:25:29.277Z,98777.91
2023-04-15T09:28:01.017Z,98777.61
2023-04-15T09:30:29.963Z,98777.58
2023-04-15T09:33:00.314Z,98780.29
2023-04-15T09:35:29.416Z,98784.09
2023-04-15T09:38:05.202Z,98784.95
2023-04-15T09:40:35.390Z,98781.56
2023-04-15T09:43:04.791Z,98787.75
2023-04-15T09:45:34.324Z,98788.98
2023-04-15T09:48:17.321Z,98785.40
2023-04-15T09:50:45.851Z,98788.98
2023-04-15T09:53:21.366Z,98791.30
2023-04-15T09:55:54.521Z,98789.11
2023-04-15T09:58:24.503Z,98786.52
2023-04-15T10:00:54.206Z,98791.33
2023-04-15T10:03:24.038Z,98788.71
2023-04-15T10:05:55.094Z,98781.94
2023-04-15T10:08:25.288Z,98784.34
2023-04-15T10:10:54.184Z,98779.76
2023-04-15T10:13:24.663Z,98778.98
2023-04-15T10:15:57.717Z,98784.74
2023-04-15T10:18:28.811Z,98781.48
2023-04-15T10:20:57.244Z,98780.44
2023-04-15T10:23:26.844Z,98778.27
2023-04-15T10:25:55.891Z,98775.73
2023-04-15T10:28:24.581Z,98777.74
2023-04-15T10:30:53.787Z,98774.06
2023-04-15T10:33:23.718Z,98771.67
2023-04-15T10:35:54.266Z,98768.23
2023-04-15T10:38:34.163Z,98770.98
2023-04-15T10:41:18.700Z,98769.66
2023-04-15T10:43:51.059Z,98767.31
2023-04-15T10:46:36.667Z,98769.72
2023-04-15T10:49:10.327Z,98774.15
2023-04-15T10:51:41.557Z,98771.83
2023-04-15T10:54:13.887Z,98769.45
2023-04-15T10:56:43.437Z,98768.11
2023-04-15T10:59:11.918Z,98769.73
2023-04-15T11:02:01.282Z,98765.98
2023-04-15T11:04:57.300Z,98765.86
2023-04-15T11:07:36.249Z,98764.31
2023-04-15T11:10:25.638Z,98761.84
2023-04-15T11:12:57.208Z,98761.02
2023-04-15T11:15:32.206Z,98762.31
2023-04-15T11:18:10.369Z,98767.71
2023-04-15T11:20:40.413Z,98772.83
2023-04-15T11:23:15.112Z,98776.55
2023-04-15T11:25:44.557Z,98778.66
2023-04-15T11:28:14.094Z,98778.55
2023-04-15T11:30:44.106Z,98781.45
2023-04-15T11:33:13.465Z,98777.13
2023-04-15T11:35:42.404Z,98778.73
2023-04-15T11:38:14.782Z,98784.33
2023-04-15T11:40:46.719Z,98782.84
2023-04-15T11:43:18.057Z,98782.80
2023-04-15T11:45:52.350Z,98783.91
2023-04-15T11:48:22.174Z,98787.29
2023-04-15T11:50:55.810Z,98787.64
2023-04-15T11:53:25.419Z,98785.98
2023-04-15T11:55:54.684Z,98780.70
2023-04-15T11:58:24.779Z,98786.86
2023-04-15T12:00:58.586Z,98782.68
2023-04-15T12:03:28.593Z,98783.94
2023-04-15T12:06:23.994Z,98786.34
2023-04-15T12:09:07.381Z,98784.20
2023-04-15T12:11:39.038Z,98787.52
2023-04-15T12:14:10.655Z,98783.27
2023-04-15T12:16:58.692Z,98783.98
2023-04-15T12:19:36.549Z,98782.73
2023-04-15T12:22:08.979Z,98783.89
2023-04-15T12:24:38.871Z,98780.77
2023-04-15T12:27:08.944Z,98782.06
2023-04-15T12:29:40.300Z,98779.91
2023-04-15T12:32:10.309Z,98783.08
2023-04-15T12:34:40.049Z,98786.19
2023-04-15T12:37:11.170Z,98785.52
2023-04-15T12:39:41.285Z,98786.52
2023-04-15T12:42:10.297Z,98788.12
2023-04-15T12:44:39.641Z,98788.80
2023-04-15T12:47:10.071Z,98785.05
2023-04-15T12:49:44.965Z,98786.06
2023-04-15T12:52:24.996Z,98789.73
2023-04-15T12:55:13.146Z,98790.86
2023-04-15T12:57:51.493Z,98791.16
2023-04-15T13:00:29.968Z,98793.73
2023-04-15T13:03:07.496Z,98793.92
2023-04-15T13:05:54.191Z,98793.73
2023-04-15T13:08:30.450Z,98796.08
2023-04-15T13:11:04.879Z,98799.57
2023-04-15T13:13:39.371Z,98797.48
2023-04-15T13:16:11.979Z,98797.09
2023-04-15T13:18:48.896Z,98799.56
2023-04-15T13:21:18.458Z,98800.98
2023-04-15T13:24:05.193Z,98801.74
2023-04-15T13:26:36.444Z,98801.48
2023-04-15T13:29:16.968Z,98801.58
2023-04-15T13:31:58.697Z,98801.27
2023-04-15T13:34:34.499Z,98803.10
2023-04-15T13:37:10.789Z,98803.79
2023-04-15T13:39:52.818Z,98803.11
2023-04-15T13:42:27.622Z,98805.92
2023-04-15T13:45:01.648Z,98804.41
2023-04-15T13:47:38.096Z,98802.30
2023-04-15T13:50:08.859Z,98808.66
2023-04-15T13:52:38.649Z,98804.64
2023-04-15T13:55:19.287Z,98808.34
2023-04-15T13:57:49.843Z,98807.86
2023-04-15T14:00:18.761Z,98811.28
2023-04-15T14:02:47.475Z,98813.86
2023-04-15T14:05:16.438Z,98815.83
2023-04-15T14:07:45.285Z,98819.10
2023-04-15T14:10:13.828Z,98816.46
2023-04-15T14:12:42.351Z,98821.13
2023-04-15T14:15:11.906Z,98820.11
2023-04-15T14:17:41.900Z,98820.79
2023-04-15T14:20:11.673Z,98817.96
2023-04-15T14:22:42.149Z,98822.27
2023-04-15T14:25:15.147Z,98822.23
2023-04-15T14:27:51.876Z,98822.73
2023-04-15T14:30:20.495Z,98825.45
2023-04-15T14:32:48.879Z,98824.64
2023-04-15T14:35:17.658Z,98824.84
2023-04-15T14:37:46.107Z,98825.09
2023-04-15T14:40:14.510Z,98822.23
2023-04-15T14:42:43.084Z,98824.80
2023-04-15T14:45:12.335Z,98827.02
2023-04-15T14:47:42.390Z,98831.31
2023-04-15T14:50:11.758Z,98833.16
2023-04-15T14:52:40.251Z,98837.21
2023-04-15T14:55:11.321Z,98841.59
2023-04-15T14:57:41.701Z,98840.39
2023-04-15T15:00:15.866Z,98844.24
2023-04-15T15:02:46.794Z,98846.08
2023-04-15T15:05:15.518Z,98848.96
2023-04-15T15:07:44.146Z,98852.35
2023-04-15T15:10:12.657Z,98853.59
2023-04-15T15:12:41.251Z,98855.71
2023-04-15T15:15:24.927Z,98860.95
2023-04-15T15:17:56.924Z,98857.52
2023-04-15T15:20:25.593Z,98860.45
2023-04-15T15:22:54.270Z,98862.27
2023-04-15T15:25:22.768Z,98860.94
2023-04-15T15:27:51.383Z,98863.55
2023-04-15T15:30:23.388Z,98864.94
2023-04-15T15:33:01.822Z,98865.10
2023-04-15T15:35:37.148Z,98872.59
2023-04-15T15:38:06.900Z,98877.35
2023-04-15T15:40:36.376Z,98880.03
2023-04-15T15:43:14.935Z,98884.02
2023-04-15T15:45:53.721Z,98881.29
2023-04-15T15:48:29.534Z,98887.92
2023-04-15T15:51:08.322Z,98884.91
2023-04-15T15:53:41.771Z,98885.82
2023-04-15T15:56:17.041Z,98885.32
2023-04-15T15:58:51.842Z,98891.52
2023-04-15T16:01:26.009Z,98892.20
2023-04-15T16:03:59.957Z,98889.67
2023-04-15T16:06:35.363Z,98891.23
2023-04-15T16:09:04.893Z,98893.59
2023-04-15T16:11:43.150Z,98893.30
2023-04-15T16:14:23.574Z,98891.77
2023-04-15T16:17:08.550Z,98896.48
2023-04-15T16:19:58.176Z,98899.56
2023-04-15T16:22:39.340Z,98901.21
2023-04-15T16:25:15.601Z,98906.08
2023-04-15T16:28:03.126Z,98902.73
2023-04-15T16:30:48.141Z,98908.44
2023-04-15T16:33:35.277Z,98909.77
2023-04-15T16:36:11.105Z,98912.50
2023-04-15T16:38:41.276Z,98911.70
2023-04-15T16:41:19.063Z,98920.09
2023-04-15T16:43:59.262Z,98924.98
2023-04-15T16:46:40.758Z,98927.63
2023-04-15T16:49:27.819Z,98927.21
2023-04-15T16:52:04.230Z,98932.60
2023-04-15T16:54:43.371Z,98932.29
2023-04-15T16:57:14.653Z,98938.23
2023-04-15T16:59:49.162Z,98941.70
2023-04-15T17:02:25.501Z,98944.02
2023-04-15T17:05:08.030Z,98954.05
2023-04-15T17:07:47.065Z,98955.08
2023-04-15T17:10:22.266Z,98956.89
2023-04-15T17:12:57.496Z,98959.79
2023-04-15T17:15:29.859Z,98965.38
2023-04-15T17:18:08.710Z,98970.48
2023-04-15T17:20:40.684Z,98973.28
2023-04-15T17:23:13.470Z,98976.57
2023-04-15T17:25:51.627Z,98981.48
2023-04-15T17:28:20.608Z,98982.60
2023-04-15T17:30:49.806Z,98985.36
2023-04-15T17:33:54.194Z,98993.84
2023-04-15T17:36:08.241Z,98996.20
2023-04-15T17:38:37.114Z,99005.61
2023-04-15T17:41:07.183Z,99011.46
2023-04-15T17:43:35.659Z,99014.37
2023-04-15T17:46:05.185Z,99016.09
2023-04-15T17:48:43.475Z,99022.41
2023-04-15T17:51:19.026Z,99029.35
2023-04-15T17:53:51.193Z,99040.27
2023-04-15T17:56:23.192Z,99051.05
2023-04-15T17:58:52.498Z,99056.86
2023-04-15T18:01:22.454Z,99064.77
2023-04-15T18:03:51.168Z,99070.08
2023-04-15T18:06:21.309Z,99073.66
2023-04-15T18:08:52.720Z,99081.81
2023-04-15T18:11:24.659Z,99086.88
2023-04-15T18:13:54.225Z,99091.73
2023-04-15T18:16:30.004Z,99099.08
2023-04-15T18:19:04.138Z,99104.23
2023-04-15T18:21:36.162Z,99112.13
2023-04-15T18:24:06.289Z,99118.24
2023-04-15T18:26:35.902Z,99127.44
2023-04-15T18:29:10.040Z,99128.96
2023-04-15T18:31:43.091Z,99145.02
2023-04-15T18:34:20.149Z,99152.70
2023-04-15T18:36:56.670Z,99152.23
2023-04-15T18:39:31.346Z,99155.41
2023-04-15T18:42:01.456Z,99159.06
2023-04-15T18:44:31.376Z,99160.55
2023-04-15T18:47:00.484Z,99164.34
2023-04-15T18:49:29.964Z,99166.97
2023-04-15T18:51:58.854Z,99170.70
2023-04-15T18:54:27.910Z,99174.01
2023-04-15T18:56:57.283Z,99172.85
2023-04-15T18:59:29.410Z,99178.05
2023-04-15T19:02:05.887Z,99179.90
2023-04-15T19:04:39.073Z,99175.67
2023-04-15T19:07:13.083Z,99174.27
2023-04-15T19:09:46.915Z,99183.23
2023-04-15T19:12:19.365Z,99187.33
2023-04-15T19:14:48.439Z,99189.40
2023-04-15T19:17:17.040Z,99189.73
2023-04-15T19:19:46.831Z,99193.75
2023-04-15T19:22:16.345Z,99196.45
2023-04-15T19:24:46.456Z,99201.55
2023-04-15T19:27:18.166Z,99196.98
2023-04-15T19:29:47.303Z,99201.30
2023-04-15T19:32:16.304Z,99204.44
2023-04-15T19:34:51.920Z,99207.23
2023-04-15T19:37:21.028Z,99214.35
2023-04-15T19:39:55.720Z,99215.27
2023-04-15T19:42:41.658Z,99220.76
2023-04-15T19:45:12.365Z,99221.03
2023-04-15T19:47:42.649Z,99224.09
2023-04-15T19:50:15.659Z,99223.52
2023-04-15T19:52:54.348Z,99228.64
2023-04-15T19:55:26.992Z,99236.78
2023-04-15T19:57:55.449Z,99245.63
2023-04-15T20:00:28.313Z,99245.71
2023-04-15T20:02:56.934Z,99246.63
2023-04-15T20:05:25.679Z,99248.14
2023-04-15T20:07:54.343Z,99250.64
2023-04-15T20:10:23.382Z,99249.56
2023-04-15T20:12:53.117Z,99250.48
2023-04-15T20:15:23.047Z,99253.33
2023-04-15T20:17:51.743Z,99256.52
2023-04-15T20:20:20.920Z,99257.74
2023-04-15T20:22:49.757Z,99260.45
2023-04-15T20:25:18.631Z,99261.70
2023-04-15T20:27:47.322Z,99265.91
2023-04-15T20:30:16.190Z,99266.27
2023-04-15T20:32:44.880Z,99267.27
2023-04-15T20:35:13.354Z,99273.68
2023-04-15T20:37:44.478Z,99275.71
2023-04-15T20:40:14.804Z,99276.86
2023-04-15T20:42:44.295Z,99283.84
2023-04-15T20:45:12.972Z,99286.96
2023-04-15T20:47:41.891Z,99285.35
2023-04-15T20:50:13.071Z,99281.34
2023-04-15T20:52:42.370Z,99280.27
2023-04-15T20:55:11.112Z,99277.43
2023-04-15T20:57:39.744Z,99279.81
2023-04-15T21:00:11.683Z,99282.55
2023-04-15T21:02:40.357Z,99287.31
2023-04-15T21:05:09.685Z,99287.13
2023-04-15T21:07:40.751Z,99295.39
2023-04-15T21:10:10.511Z,99292.27
2023-04-15T21:12:40.405Z,99291.74
2023-04-15T21:15:10.658Z,99291.27
2023-04-15T21:17:39.237Z,99290.88
2023-04-15T21:20:09.785Z,99295.77
2023-04-15T21:22:38.084Z,99293.21
2023-04-15T21:25:08.260Z,99299.27
2023-04-15T21:27:36.680Z,99300.91
2023-04-15T21:30:06.930Z,99298.74
2023-04-15T21:32:35.415Z,99303.98
2023-04-15T21:35:05.086Z,99303.36
2023-04-15T21:37:33.509Z,99304.43
2023-04-15T21:40:02.115Z,99306.08
2023-04-15T21:42:30.958Z,99308.02
2023-04-15T21:44:59.424Z,99309.04
2023-04-15T21:47:27.857Z,99311.09
2023-04-15T21:49:56.338Z,99310.22
2023-04-15T21:52:24.967Z,99315.23
2023-04-15T21:54:53.589Z,99311.83
2023-04-15T21:57:22.382Z,99317.75
2023-04-15T21:59:50.787Z,99320.55
2023-04-15T22:02:19.580Z,99318.30
2023-04-15T22:04:48.106Z,99319.11
2023-04-15T22:07:16.599Z,99323.34
2023-04-15T22:09:45.140Z,99326.97
2023-04-15T22:12:13.551Z,99332.54
2023-04-15T22:14:41.954Z,99332.92
2023-04-15T22:17:10.365Z,99333.34
2023-04-15T22:19:39.215Z,99337.59
2023-04-15T22:22:07.532Z,99339.27
2023-04-15T22:24:40.262Z,99339.13
2023-04-15T22:27:09.445Z,99343.49
2023-04-15T22:29:38.152Z,99340.60
2023-04-15T22:32:07.412Z,99342.38
2023-04-15T22:34:35.722Z,99345.14
2023-04-15T22:37:04.140Z,99343.16
2023-04-15T22:39:32.550Z,99346.09
2023-04-15T22:42:01.371Z,99345.55
2023-04-15T22:44:29.911Z,99349.45
2023-04-15T22:46:58.275Z,99354.14
2023-04-15T22:49:26.794Z,99360.23
2023-04-15T22:51:55.273Z,99362.04
2023-04-15T22:54:23.982Z,99363.81
2023-04-15T22:56:52.541Z,99363.45
2023-04-15T22:59:20.910Z,99366.58
2023-04-15T23:01:49.556Z,99368.99
2023-04-15T23:04:23.549Z,99368.23
2023-04-15T23:06:54.448Z,99373.75
2023-04-15T23:09:23.068Z,99378.95
2023-04-15T23:11:51.467Z,99388.71
2023-04-15T23:14:19.946Z,99392.34
2023-04-15T23:16:48.689Z,99395.23
2023-04-15T23:19:17.159Z,99399.73
2023-04-15T23:21:45.885Z,99395.54
2023-04-15T23:24:14.532Z,99397.97
2023-04-15T23:26:43.137Z,99398.16
2023-04-15T23:29:11.686Z,99399.54
2023-04-15T23:31:41.155Z,99400.87
2023-04-15T23:34:09.682Z,99400.89
2023-04-15T23:36:38.107Z,99398.38
2023-04-15T23:39:06.498Z,99393.33
2023-04-15T23:41:35.954Z,99390.35
2023-04-15T23:44:04.953Z,99390.64
2023-04-15T23:46:33.481Z,99389.80
2023-04-15T23:49:01.993Z,99392.64
2023-04-15T23:51:30.614Z,99398.05
2023-04-15T23:53:59.055Z,99398.36
2023-04-15T23:56:27.500Z,99401.08
2023-04-15T23:58:55.885Z,99403.39
